Time;durP1;ratioP1;P1;durP2;ratioP2;P2;SDS_P1;SDS_P2;PMS_P1;PMS_P2;Temp;Humidity;BMP_temperature;BMP_pressure;BME280_temperature;BME280_humidity;BME280_pressure;Samples;Min_cycle;Max_cycle;Signal;HPM_P1;HPM_P2
2024/01/05 00:00:23;;;;;;;6.95;2.30;;;19.50;58.70;;;;;;5085027;28;20100;-55
2024/01/05 00:15:12;;;;;;;16.40;2.92;;;19.40;58.40;;;;;;5086593;28;20092;-53
2024/01/05 00:17:38;;;;;;;11.60;2.38;;;19.40;58.40;;;;;;5087311;28;20031;-53
2024/01/05 00:20:08;;;;;;;7.95;2.40;;;19.40;58.60;;;;;;5087200;28;20491;-53
2024/01/05 00:22:34;;;;;;;;;;;19.40;58.50;;;;;;5085385;28;20479;-52
2024/01/05 00:25:00;;;;;;;6.32;2.78;;;19.40;58.60;;;;;;5085431;28;19908;-55
2024/01/05 00:27:26;;;;;;;5.72;2.17;;;19.40;58.70;;;;;;5084952;28;20483;-50
2024/01/05 00:29:51;;;;;;;8.73;2.67;;;19.30;58.70;;;;;;5086817;28;20027;-52
2024/01/05 00:32:17;;;;;;;7.20;2.80;;;19.30;58.50;;;;;;5119481;22;20100;-54
2024/01/05 00:34:43;;;;;;;5.80;2.20;;;19.30;58.80;;;;;;5107409;28;20102;-53
2024/01/05 00:37:09;;;;;;;7.43;2.63;;;19.30;58.10;;;;;;5108377;28;20024;-56
2024/01/05 00:39:35;;;;;;;10.75;2.55;;;19.40;58.40;;;;;;5108587;28;20024;-54
2024/01/05 00:42:02;;;;;;;5.60;2.45;;;19.30;58.30;;;;;;5103916;28;20122;-52
2024/01/05 00:44:28;;;;;;;6.65;2.50;;;19.30;58.20;;;;;;5092219;28;20523;-56
2024/01/05 00:46:54;;;;;;;7.07;2.65;;;19.40;58.30;;;;;;5086263;28;20100;-55
2024/01/05 00:49:19;;;;;;;12.15;2.70;;;19.30;58.60;;;;;;5091318;28;20031;-52
2024/01/05 00:51:45;;;;;;;4.00;2.20;;;19.30;58.50;;;;;;5077351;28;20173;-56
2024/01/05 00:54:11;;;;;;;4.32;2.10;;;19.30;58.20;;;;;;5088312;28;20027;-54
2024/01/05 00:56:37;;;;;;;4.88;2.50;;;19.30;58.20;;;;;;5089871;28;20038;-55
2024/01/05 00:59:05;;;;;;;5.00;2.35;;;19.30;58.30;;;;;;5091936;28;20099;-52
2024/01/05 01:01:31;;;;;;;4.85;2.60;;;19.30;58.30;;;;;;5089625;28;20030;-51
2024/01/05 01:03:56;;;;;;;6.50;2.33;;;19.30;58.10;;;;;;5090314;28;20024;-50
2024/01/05 01:06:22;;;;;;;4.35;2.30;;;19.30;58.30;;;;;;5081868;28;20052;-55
2024/01/05 01:08:48;;;;;;;5.85;2.45;;;19.30;57.90;;;;;;5084936;28;20020;-51
2024/01/05 01:11:15;;;;;;;4.13;2.55;;;19.30;58.20;;;;;;5089440;28;20036;-49
2024/01/05 01:13:41;;;;;;;4.35;2.30;;;19.30;58.50;;;;;;5090687;28;20039;-54
2024/01/05 01:16:07;;;;;;;4.20;2.05;;;19.30;58.00;;;;;;5092275;28;20025;-56
2024/01/05 01:18:33;;;;;;;5.07;2.10;;;19.30;58.10;;;;;;5090637;28;20090;-54
2024/01/05 01:20:59;;;;;;;5.80;2.10;;;19.40;58.30;;;;;;5086907;28;20024;-51
2024/01/05 01:23:25;;;;;;;5.78;2.42;;;19.40;57.90;;;;;;5088687;28;20398;-50
2024/01/05 01:25:50;;;;;;;8.07;2.30;;;19.40;58.30;;;;;;5092113;28;20073;-54
2024/01/05 01:28:16;;;;;;;8.93;2.58;;;19.40;58.30;;;;;;5091810;28;20028;-52
2024/01/05 01:30:42;;;;;;;7.55;2.20;;;19.40;58.20;;;;;;5091045;28;20483;-49
2024/01/05 01:33:08;;;;;;;10.60;2.92;;;19.40;58.30;;;;;;5087761;28;20039;-52
2024/01/05 01:35:33;;;;;;;8.10;2.33;;;19.40;58.30;;;;;;5089630;28;20021;-54
2024/01/05 01:37:59;;;;;;;7.50;2.10;;;19.30;58.40;;;;;;5091137;28;20024;-54
2024/01/05 01:40:26;;;;;;;7.60;2.05;;;19.30;58.40;;;;;;5085006;28;20012;-55
2024/01/05 01:42:52;;;;;;;4.43;2.20;;;19.30;58.40;;;;;;5090066;28;20020;-51
2024/01/05 01:45:18;;;;;;;6.65;2.33;;;19.30;58.50;;;;;;5088333;28;20039;-55
2024/01/05 01:47:45;;;;;;;15.27;2.03;;;19.30;58.30;;;;;;5083654;28;20403;-54
2024/01/05 01:50:12;;;;;;;7.13;2.30;;;19.30;58.40;;;;;;5090496;28;20070;-55
2024/01/05 01:52:40;;;;;;;4.47;2.33;;;19.30;58.40;;;;;;5082309;28;20398;-52
2024/01/05 01:55:07;;;;;;;5.57;2.35;;;19.30;58.60;;;;;;5089828;28;20026;-56
2024/01/05 01:57:34;;;;;;;4.40;2.28;;;19.30;58.30;;;;;;5090657;28;20020;-55
2024/01/05 02:00:00;;;;;;;3.95;2.15;;;19.20;58.30;;;;;;5090860;28;20024;-54
2024/01/05 02:02:27;;;;;;;4.40;2.25;;;19.30;58.40;;;;;;5083491;28;20031;-54
2024/01/05 02:04:53;;;;;;;3.95;1.90;;;19.20;58.20;;;;;;5091398;28;20028;-54
2024/01/05 02:07:19;;;;;;;3.90;1.85;;;19.20;58.00;;;;;;5091348;28;20032;-56
2024/01/05 02:09:45;;;;;;;3.92;2.00;;;19.30;58.10;;;;;;5090217;28;20063;-54
2024/01/05 02:12:11;;;;;;;4.68;2.10;;;19.20;57.90;;;;;;5089229;28;20503;-55
2024/01/05 02:14:38;;;;;;;4.25;1.90;;;19.20;58.00;;;;;;5084535;28;20356;-56
2024/01/05 02:17:28;;;;;;;6.43;2.50;;;19.20;58.20;;;;;;5077260;28;20028;-51
2024/01/05 02:19:55;;;;;;;5.82;2.13;;;19.20;58.00;;;;;;5090538;28;20021;-49
2024/01/05 02:22:22;;;;;;;5.07;2.10;;;19.20;58.10;;;;;;5084883;28;20032;-51
2024/01/05 02:24:49;;;;;;;3.28;1.88;;;19.20;58.10;;;;;;5088798;28;20039;-51
2024/01/05 02:27:14;;;;;;;4.85;2.03;;;19.20;57.70;;;;;;5086106;28;20086;-53
2024/01/05 02:29:40;;;;;;;3.80;1.90;;;19.20;57.80;;;;;;5091376;28;20028;-52
2024/01/05 02:32:07;;;;;;;4.03;2.30;;;19.20;57.90;;;;;;5086768;28;20052;-55
2024/01/05 02:34:32;;;;;;;3.03;1.83;;;19.20;57.60;;;;;;5089194;28;20444;-56
2024/01/05 02:36:58;;;;;;;5.32;2.25;;;19.30;57.70;;;;;;5094318;28;20103;-55
2024/01/05 02:39:24;;;;;;;3.58;2.30;;;19.30;57.80;;;;;;5092750;28;20027;-50
2024/01/05 02:41:50;;;;;;;5.70;2.22;;;19.20;57.40;;;;;;5085323;28;20105;-55
2024/01/05 02:44:16;;;;;;;4.25;2.10;;;19.20;57.70;;;;;;5095049;28;20020;-53
2024/01/05 02:46:41;;;;;;;3.13;2.03;;;19.30;57.80;;;;;;5090633;28;20529;-56
2024/01/05 02:49:07;;;;;;;5.30;2.00;;;19.20;57.70;;;;;;5093997;28;20035;-56
2024/01/05 02:51:33;;;;;;;6.50;2.58;;;19.30;57.60;;;;;;5091692;28;20051;-52
2024/01/05 02:53:59;;;;;;;3.92;2.03;;;19.30;57.40;;;;;;5092197;28;20023;-54
2024/01/05 02:56:25;;;;;;;4.88;2.03;;;19.30;57.30;;;;;;5088757;28;20028;-52
2024/01/05 02:58:52;;;;;;;3.38;1.80;;;19.30;57.40;;;;;;5093368;28;20054;-52
2024/01/05 03:01:18;;;;;;;3.67;2.03;;;19.30;57.50;;;;;;5092949;28;20513;-53
2024/01/05 03:03:46;;;;;;;3.33;1.88;;;19.30;57.60;;;;;;5091414;28;20046;-52
2024/01/05 03:06:14;;;;;;;3.70;2.10;;;19.30;57.70;;;;;;5092885;28;20059;-53
2024/01/05 03:08:40;;;;;;;2.63;1.73;;;19.30;57.80;;;;;;5093916;28;20081;-56
2024/01/05 03:11:05;;;;;;;3.55;1.90;;;19.20;57.80;;;;;;5089914;28;20028;-51
2024/01/05 03:13:31;;;;;;;3.33;1.90;;;19.30;57.50;;;;;;5090244;28;20085;-54
2024/01/05 03:15:57;;;;;;;3.30;1.80;;;19.30;57.60;;;;;;5094382;28;20039;-53
2024/01/05 03:18:23;;;;;;;5.78;2.15;;;19.30;57.80;;;;;;5094020;28;20024;-55
2024/01/05 03:20:48;;;;;;;3.75;1.90;;;19.20;57.50;;;;;;5089304;28;20046;-55
2024/01/05 03:23:15;;;;;;;3.00;1.70;;;19.20;57.70;;;;;;5079044;28;20056;-54
2024/01/05 03:25:41;;;;;;;3.10;1.77;;;19.20;57.60;;;;;;5093720;28;20032;-53
2024/01/05 03:28:07;;;;;;;5.22;2.00;;;19.20;57.70;;;;;;5093722;28;20036;-56
2024/01/05 03:30:33;;;;;;;2.97;1.60;;;19.20;57.70;;;;;;5089025;28;20069;-56
2024/01/05 03:32:59;;;;;;;5.15;1.70;;;19.20;57.70;;;;;;5092888;28;20039;-55
2024/01/05 03:35:24;;;;;;;3.70;1.90;;;19.20;57.60;;;;;;5091716;28;20025;-52
2024/01/05 03:37:50;;;;;;;3.75;2.08;;;19.20;57.70;;;;;;5094236;28;20617;-54
2024/01/05 03:40:16;;;;;;;2.17;1.77;;;19.20;57.70;;;;;;5092003;28;20409;-56
2024/01/05 03:42:42;;;;;;;4.32;1.95;;;19.20;57.90;;;;;;5089002;28;20023;-54
2024/01/05 03:45:08;;;;;;;3.85;1.85;;;19.20;57.50;;;;;;5093310;28;20031;-52
2024/01/05 03:47:33;;;;;;;3.22;1.80;;;19.20;57.50;;;;;;5084999;28;20458;-54
2024/01/05 03:49:59;;;;;;;4.38;2.15;;;19.20;57.70;;;;;;5075413;28;20032;-54
2024/01/05 03:52:25;;;;;;;4.32;2.08;;;19.20;57.20;;;;;;5093076;28;20028;-56
2024/01/05 03:54:51;;;;;;;3.13;1.60;;;19.20;57.60;;;;;;5083811;28;20119;-56
2024/01/05 03:57:17;;;;;;;5.40;1.70;;;19.20;57.60;;;;;;5090227;28;20050;-52
2024/01/05 03:59:43;;;;;;;2.50;1.77;;;19.20;57.50;;;;;;5092215;28;20168;-54
2024/01/05 04:02:08;;;;;;;3.28;1.80;;;19.20;57.40;;;;;;5092697;28;20483;-56
2024/01/05 04:04:34;;;;;;;3.55;1.70;;;19.20;57.50;;;;;;5085407;28;20063;-56
2024/01/05 04:07:00;;;;;;;3.13;1.77;;;19.20;57.30;;;;;;5092515;28;20738;-54
2024/01/05 04:09:26;;;;;;;3.47;2.08;;;19.20;57.30;;;;;;5092257;28;20510;-55
2024/01/05 04:11:52;;;;;;;2.75;1.80;;;19.20;57.30;;;;;;5082783;28;20115;-55
2024/01/05 04:14:17;;;;;;;2.65;1.90;;;19.20;57.20;;;;;;5093636;28;20027;-54
2024/01/05 04:16:43;;;;;;;4.57;1.90;;;19.20;57.10;;;;;;5083285;28;20036;-56
2024/01/05 04:19:09;;;;;;;5.38;1.90;;;19.20;57.50;;;;;;5090953;28;20028;-54
2024/01/05 04:21:35;;;;;;;4.07;2.00;;;19.20;57.50;;;;;;5088893;28;20032;-54
2024/01/05 04:24:02;;;;;;;2.58;1.65;;;19.20;57.00;;;;;;5092466;28;20035;-56
2024/01/05 04:26:27;;;;;;;3.33;2.17;;;19.20;57.30;;;;;;5091757;28;20025;-56
2024/01/05 04:28:53;;;;;;;2.67;1.90;;;19.20;57.40;;;;;;5092462;28;20063;-54
2024/01/05 04:31:19;;;;;;;3.75;1.98;;;19.20;57.00;;;;;;5085303;28;20036;-54
2024/01/05 04:33:45;;;;;;;3.22;1.88;;;19.20;56.80;;;;;;5088738;28;20099;-56
2024/01/05 04:36:15;;;;;;;9.70;2.03;;;19.20;56.60;;;;;;5091734;28;20020;-52
2024/01/05 04:38:41;;;;;;;3.92;1.70;;;19.20;56.90;;;;;;5092026;28;20052;-54
2024/01/05 04:41:07;;;;;;;7.95;1.80;;;19.30;57.10;;;;;;5091899;28;20518;-54
2024/01/05 04:43:33;;;;;;;3.20;1.90;;;19.30;57.30;;;;;;5092296;28;20024;-55
2024/01/05 04:46:00;;;;;;;2.22;1.70;;;19.30;57.20;;;;;;5091819;28;20042;-56
2024/01/05 04:48:26;;;;;;;4.15;1.80;;;19.20;57.40;;;;;;5089097;28;20036;-53
2024/01/05 04:50:53;;;;;;;7.38;1.90;;;19.30;57.50;;;;;;5091907;28;20031;-50
2024/01/05 04:53:18;;;;;;;2.50;1.67;;;19.20;57.30;;;;;;5093183;28;20024;-52
2024/01/05 04:55:44;;;;;;;4.57;1.95;;;19.30;57.30;;;;;;5090835;28;20131;-53
2024/01/05 04:58:10;;;;;;;3.75;1.90;;;19.20;57.40;;;;;;5064849;28;20028;-54
2024/01/05 05:00:36;;;;;;;2.65;1.80;;;19.30;57.30;;;;;;5091869;28;20028;-54
2024/01/05 05:03:02;;;;;;;4.25;1.90;;;19.20;57.10;;;;;;5091772;28;20027;-54
2024/01/05 05:05:28;;;;;;;3.53;2.00;;;19.20;57.20;;;;;;5084025;28;20054;-53
2024/01/05 05:07:54;;;;;;;3.28;1.88;;;19.20;57.20;;;;;;5090375;28;20399;-54
2024/01/05 05:10:22;;;;;;;3.47;1.92;;;19.20;57.10;;;;;;5091703;28;20040;-56
2024/01/05 05:12:48;;;;;;;3.50;2.00;;;19.20;57.10;;;;;;5090614;28;20031;-54
2024/01/05 05:15:14;;;;;;;3.38;1.67;;;19.30;57.00;;;;;;5090282;28;20073;-52
2024/01/05 05:17:39;;;;;;;3.22;2.08;;;19.30;56.90;;;;;;5084078;28;20107;-54
2024/01/05 05:20:06;;;;;;;1.95;1.60;;;19.20;56.80;;;;;;5092350;28;20031;-51
2024/01/05 05:22:32;;;;;;;2.75;1.70;;;19.20;56.90;;;;;;5090740;28;20035;-54
2024/01/05 05:24:58;;;;;;;2.85;1.70;;;19.20;56.60;;;;;;5092218;28;20028;-51
2024/01/05 05:27:24;;;;;;;5.25;1.80;;;19.30;56.70;;;;;;5092297;28;20433;-49
2024/01/05 05:29:50;;;;;;;2.88;1.80;;;19.30;56.90;;;;;;5082552;28;20036;-49
2024/01/05 05:32:16;;;;;;;2.20;1.73;;;19.30;56.90;;;;;;5085004;28;20028;-52
2024/01/05 05:34:44;;;;;;;4.10;2.10;;;19.20;56.80;;;;;;5088540;28;20017;-52
2024/01/05 05:37:10;;;;;;;3.50;1.70;;;19.20;56.90;;;;;;5091421;28;20061;-52
2024/01/05 05:39:36;;;;;;;5.93;2.00;;;19.20;56.90;;;;;;5091257;28;20024;-49
2024/01/05 05:42:02;;;;;;;2.83;1.77;;;19.20;57.00;;;;;;5090742;28;20034;-52
2024/01/05 05:44:29;;;;;;;3.47;1.83;;;19.20;57.00;;;;;;5089265;28;20051;-49
2024/01/05 05:46:56;;;;;;;3.22;2.05;;;19.20;57.10;;;;;;5085731;28;20030;-49
2024/01/05 05:49:22;;;;;;;5.32;1.95;;;19.20;56.80;;;;;;5090775;28;20047;-53
2024/01/05 05:51:47;;;;;;;3.58;1.80;;;19.20;56.70;;;;;;5089744;28;20036;-50
2024/01/05 05:54:13;;;;;;;3.72;1.80;;;19.20;57.60;;;;;;5091799;28;20057;-51
2024/01/05 05:56:39;;;;;;;5.72;2.08;;;19.20;57.20;;;;;;5090498;28;20052;-50
2024/01/05 05:59:05;;;;;;;7.15;1.88;;;19.20;57.00;;;;;;5086722;28;20016;-49
2024/01/05 06:01:31;;;;;;;3.75;1.90;;;19.20;57.30;;;;;;5089145;28;20069;-51
2024/01/05 06:03:57;;;;;;;2.42;1.55;;;19.20;56.90;;;;;;5091171;28;20024;-52
2024/01/05 06:06:24;;;;;;;3.08;1.73;;;19.20;57.10;;;;;;5088262;28;20400;-51
2024/01/05 06:08:53;;;;;;;6.65;1.70;;;19.30;57.00;;;;;;5088617;28;20524;-50
2024/01/05 06:11:19;;;;;;;2.30;1.63;;;19.20;57.20;;;;;;5089751;28;20571;-49
2024/01/05 06:13:46;;;;;;;5.35;1.77;;;19.30;56.90;;;;;;5090907;28;20024;-53
2024/01/05 06:16:12;;;;;;;2.55;1.67;;;19.20;57.00;;;;;;5090337;28;20024;-54
2024/01/05 06:18:39;;;;;;;2.45;1.75;;;19.20;57.10;;;;;;5090682;28;20021;-53
2024/01/05 06:21:05;;;;;;;4.07;1.70;;;19.20;57.30;;;;;;5087206;28;20051;-52
2024/01/05 06:23:32;;;;;;;2.72;1.58;;;19.20;56.80;;;;;;5088174;28;20074;-50
2024/01/05 06:25:58;;;;;;;3.50;1.80;;;19.20;57.00;;;;;;5090594;28;20032;-50
2024/01/05 06:28:23;;;;;;;3.08;1.65;;;19.20;56.80;;;;;;5090721;28;20061;-52
2024/01/05 06:30:49;;;;;;;3.67;1.80;;;19.20;56.70;;;;;;5083118;28;20050;-54
2024/01/05 06:33:15;;;;;;;2.65;1.60;;;19.20;56.70;;;;;;5114951;22;20562;-50
2024/01/05 06:35:41;;;;;;;2.53;1.70;;;19.20;57.00;;;;;;5090803;28;20440;-52
2024/01/05 06:38:07;;;;;;;3.20;1.70;;;19.20;56.70;;;;;;5087558;28;20104;-49
2024/01/05 06:40:33;;;;;;;1.85;1.65;;;19.20;56.60;;;;;;5085137;28;20036;-50
2024/01/05 06:42:58;;;;;;;3.10;1.60;;;19.30;56.60;;;;;;5090201;28;20111;-52
2024/01/05 06:45:24;;;;;;;4.57;1.98;;;19.20;56.70;;;;;;5089758;28;20032;-48
2024/01/05 06:47:58;;;;;;;5.47;1.80;;;19.20;56.70;;;;;;5089205;28;20028;-51
2024/01/05 06:50:24;;;;;;;2.92;1.63;;;19.30;56.70;;;;;;5089812;28;20445;-48
2024/01/05 06:52:51;;;;;;;2.22;1.55;;;19.30;56.60;;;;;;5089943;28;20016;-46
2024/01/05 06:55:16;;;;;;;3.85;1.90;;;19.30;56.60;;;;;;5089391;28;20353;-48
2024/01/05 06:57:42;;;;;;;3.90;1.70;;;19.20;56.50;;;;;;5091083;28;20104;-50
2024/01/05 07:00:10;;;;;;;2.78;1.88;;;19.20;56.60;;;;;;5088711;28;20544;-49
2024/01/05 07:02:36;;;;;;;1.85;1.50;;;19.20;56.20;;;;;;5089031;28;20028;-48
2024/01/05 07:05:03;;;;;;;2.75;1.60;;;19.20;56.50;;;;;;5090292;28;20020;-48
2024/01/05 07:07:30;;;;;;;2.15;1.60;;;19.30;56.50;;;;;;5090305;28;20077;-47
2024/01/05 07:09:56;;;;;;;3.50;1.70;;;19.30;56.40;;;;;;5088993;28;20032;-46
2024/01/05 07:12:27;;;;;;;2.45;1.40;;;19.30;56.80;;;;;;5090477;28;20028;-46
2024/01/05 07:14:53;;;;;;;2.38;1.67;;;19.20;56.50;;;;;;5089749;28;20134;-50
2024/01/05 07:17:18;;;;;;;3.63;1.70;;;19.20;56.80;;;;;;5089467;28;20431;-54
2024/01/05 07:19:44;;;;;;;3.00;1.90;;;19.20;56.40;;;;;;5088953;28;20024;-50
2024/01/05 07:22:10;;;;;;;2.65;1.55;;;19.20;56.40;;;;;;5093994;28;20024;-51
2024/01/05 07:24:37;;;;;;;2.90;1.55;;;19.20;56.40;;;;;;5094441;28;20031;-49
2024/01/05 07:27:06;;;;;;;2.53;1.58;;;19.20;56.70;;;;;;5094263;28;20028;-47
2024/01/05 07:29:33;;;;;;;;;;;19.20;56.80;;;;;;5093120;28;20028;-47
2024/01/05 07:31:58;;;;;;;2.35;1.60;;;19.20;56.60;;;;;;5093568;28;19987;-54
2024/01/05 07:34:24;;;;;;;1.63;1.40;;;19.30;57.20;;;;;;5094399;28;20098;-54
2024/01/05 07:36:50;;;;;;;2.22;1.70;;;19.30;57.20;;;;;;5094507;28;20402;-47
2024/01/05 07:39:16;;;;;;;6.45;1.80;;;19.30;56.50;;;;;;5094390;28;20036;-48
2024/01/05 07:41:42;;;;;;;2.47;1.48;;;19.30;56.80;;;;;;5094002;28;20032;-52
2024/01/05 07:44:08;;;;;;;2.80;1.70;;;19.30;57.00;;;;;;5093991;28;20028;-52
2024/01/05 07:46:40;;;;;;;4.70;1.77;;;19.30;57.10;;;;;;5094233;28;20035;-54
2024/01/05 07:49:06;;;;;;;3.10;1.58;;;19.30;57.20;;;;;;5094026;28;20025;-52
2024/01/05 07:51:32;;;;;;;12.75;1.50;;;19.30;57.90;;;;;;5092087;28;20024;-53
2024/01/05 07:53:58;;;;;;;3.25;1.30;;;19.40;57.50;;;;;;5092671;28;20104;-53
2024/01/05 07:56:24;;;;;;;8.02;1.80;;;19.40;57.50;;;;;;5093903;28;20021;-50
2024/01/05 07:58:50;;;;;;;13.55;1.70;;;19.40;57.80;;;;;;5093851;28;20056;-48
2024/01/05 08:01:20;;;;;;;6.13;1.80;;;19.30;57.80;;;;;;5091288;28;20024;-50
2024/01/05 08:03:46;;;;;;;4.32;1.70;;;19.40;58.20;;;;;;5093344;28;20031;-52
2024/01/05 08:06:19;;;;;;;2.72;1.45;;;19.30;57.30;;;;;;5093931;28;20107;-49
2024/01/05 08:08:46;;;;;;;5.55;1.83;;;19.30;57.20;;;;;;5093719;28;20101;-47
2024/01/05 08:11:13;;;;;;;8.30;2.08;;;19.30;57.70;;;;;;5093363;28;20084;-53
2024/01/05 08:13:40;;;;;;;3.75;1.75;;;19.30;57.30;;;;;;5093408;28;20032;-52
2024/01/05 08:16:06;;;;;;;6.82;1.80;;;19.30;57.80;;;;;;5091663;28;20031;-53
2024/01/05 08:18:32;;;;;;;10.55;2.35;;;19.30;57.80;;;;;;5092116;28;20016;-52
2024/01/05 08:20:58;;;;;;;7.50;1.92;;;19.30;56.70;;;;;;5084421;28;20108;-51
2024/01/05 08:23:24;;;;;;;4.55;1.88;;;19.30;56.70;;;;;;5093366;28;20483;-49
2024/01/05 08:25:49;;;;;;;8.18;2.25;;;19.30;56.80;;;;;;5093481;28;20030;-53
2024/01/05 08:28:15;;;;;;;3.50;2.05;;;19.30;56.60;;;;;;5093470;28;20487;-46
2024/01/05 08:30:41;;;;;;;2.97;1.80;;;19.30;57.10;;;;;;5092957;28;20491;-48
2024/01/05 08:33:07;;;;;;;6.50;1.98;;;19.30;56.70;;;;;;5093172;28;20549;-52
2024/01/05 08:35:35;;;;;;;6.53;1.75;;;19.30;56.60;;;;;;5093265;28;20020;-52
2024/01/05 08:38:02;;;;;;;8.82;2.10;;;19.30;56.60;;;;;;5091976;28;20071;-55
2024/01/05 08:40:29;;;;;;;4.30;1.77;;;19.30;56.60;;;;;;5093151;28;20442;-51
2024/01/05 08:42:55;;;;;;;3.15;1.83;;;19.30;56.50;;;;;;5091508;28;20024;-51
2024/01/05 08:45:21;;;;;;;5.35;2.13;;;19.30;56.50;;;;;;5093010;28;20024;-46
2024/01/05 08:48:05;;;;;;;5.43;1.65;;;19.30;56.50;;;;;;5092948;28;20115;-53
2024/01/05 08:50:31;;;;;;;3.13;1.73;;;19.20;56.70;;;;;;5092964;28;20487;-53
2024/01/05 08:52:57;;;;;;;4.85;2.05;;;19.30;56.50;;;;;;5092591;28;20032;-51
2024/01/05 08:55:23;;;;;;;3.13;1.80;;;19.30;56.90;;;;;;5092874;28;20032;-48
2024/01/05 08:57:49;;;;;;;5.90;2.00;;;19.30;56.80;;;;;;5092833;28;20035;-49
2024/01/05 09:00:15;;;;;;;5.65;1.88;;;19.30;56.70;;;;;;5092794;28;20028;-54
2024/01/05 09:02:45;;;;;;;3.97;1.85;;;19.30;56.70;;;;;;5092399;28;20406;-54
2024/01/05 09:05:11;;;;;;;5.28;2.33;;;19.30;56.40;;;;;;5092640;28;20043;-51
2024/01/05 09:07:36;;;;;;;3.33;1.95;;;19.30;56.40;;;;;;5092636;28;20024;-50
2024/01/05 09:10:02;;;;;;;2.45;1.92;;;19.30;56.70;;;;;;5092705;28;20020;-51
2024/01/05 09:12:29;;;;;;;6.90;2.25;;;19.30;56.80;;;;;;5091019;28;20050;-52
2024/01/05 09:14:54;;;;;;;6.63;2.28;;;19.30;56.60;;;;;;5092478;28;20024;-50
2024/01/05 09:17:20;;;;;;;5.20;2.45;;;19.30;56.70;;;;;;5092427;28;20032;-48
2024/01/05 09:19:46;;;;;;;4.28;2.08;;;19.30;56.50;;;;;;5088255;28;20020;-49
2024/01/05 09:22:12;;;;;;;4.13;2.08;;;19.30;56.50;;;;;;5088244;28;20475;-54
2024/01/05 09:24:38;;;;;;;10.38;2.60;;;19.30;56.70;;;;;;5081558;28;20042;-49
2024/01/05 09:27:04;;;;;;;9.80;2.67;;;19.40;56.90;;;;;;5084627;28;20032;-48
2024/01/05 09:29:33;;;;;;;8.18;2.75;;;19.40;57.40;;;;;;5100037;28;20567;-47
2024/01/05 09:32:00;;;;;;;7.43;2.10;;;19.40;57.10;;;;;;5087267;28;20441;-52
2024/01/05 09:34:26;;;;;;;12.15;2.40;;;19.40;57.20;;;;;;5092303;28;20024;-46
2024/01/05 09:36:53;;;;;;;17.15;3.05;;;19.40;57.20;;;;;;5104817;28;20428;-49
2024/01/05 09:39:39;;;;;;;13.65;2.88;;;19.40;57.10;;;;;;5102206;28;20023;-49
2024/01/05 09:42:26;;;;;;;14.60;2.65;;;19.40;57.60;;;;;;5100294;28;20563;-53
2024/01/05 09:45:12;;;;;;;23.38;3.13;;;19.50;57.20;;;;;;5096367;28;20111;-52
2024/01/05 09:48:00;;;;;;;8.48;2.63;;;19.50;57.40;;;;;;5097808;28;20039;-51
2024/01/05 09:50:53;;;;;;;12.70;3.20;;;19.50;57.50;;;;;;5099486;28;20039;-56
2024/01/05 09:53:38;;;;;;;9.77;2.80;;;19.40;57.20;;;;;;5099971;28;20024;-51
2024/01/05 09:56:26;;;;;;;11.05;2.90;;;19.40;56.80;;;;;;5097902;28;20406;-50
2024/01/05 09:59:11;;;;;;;9.48;2.90;;;19.30;56.80;;;;;;5104114;28;20019;-54
2024/01/05 10:02:00;;;;;;;12.02;3.10;;;19.30;56.30;;;;;;5097817;28;20039;-49
2024/01/05 10:04:45;;;;;;;17.30;3.60;;;19.40;56.20;;;;;;5099752;28;20987;-51
2024/01/05 10:07:31;;;;;;;9.38;3.17;;;19.40;57.20;;;;;;5097761;28;20579;-53
2024/01/05 10:10:17;;;;;;;14.05;2.92;;;19.40;56.90;;;;;;5105489;28;20055;-54
2024/01/05 10:13:05;;;;;;;10.50;2.92;;;19.40;57.00;;;;;;5096610;28;20039;-55
2024/01/05 10:15:56;;;;;;;8.82;2.88;;;19.40;57.00;;;;;;5102971;28;20027;-53
2024/01/05 10:18:41;;;;;;;10.10;2.83;;;19.30;57.70;;;;;;5105736;28;20039;-54
2024/01/05 10:21:27;;;;;;;10.02;2.92;;;19.40;57.10;;;;;;5104971;28;20038;-50
2024/01/05 10:24:27;;;;;;;6.40;2.72;;;19.40;57.10;;;;;;5106801;28;20063;-48
2024/01/05 10:27:13;;;;;;;7.95;2.72;;;19.40;57.00;;;;;;5099035;28;20032;-46
2024/01/05 10:29:59;;;;;;;7.45;2.83;;;19.40;56.80;;;;;;5105106;28;20020;-51
2024/01/05 10:32:45;;;;;;;5.57;3.10;;;19.40;56.90;;;;;;5101733;28;20058;-57
2024/01/05 10:35:31;;;;;;;8.85;2.97;;;19.40;56.90;;;;;;5106419;28;20040;-50
2024/01/05 10:38:17;;;;;;;10.65;2.63;;;19.40;57.00;;;;;;5100687;28;20260;-51
2024/01/05 10:41:06;;;;;;;6.38;3.15;;;19.40;57.00;;;;;;5103945;28;20068;-53
2024/01/05 10:43:53;;;;;;;7.70;2.83;;;19.40;56.90;;;;;;5107120;28;20465;-52
2024/01/05 10:46:39;;;;;;;9.65;3.00;;;19.40;57.00;;;;;;5104641;28;20453;-54
2024/01/05 10:49:25;;;;;;;8.80;2.67;;;19.40;56.60;;;;;;5106019;28;20039;-47
2024/01/05 10:52:13;;;;;;;9.30;3.03;;;19.50;57.10;;;;;;5101883;28;20028;-46
2024/01/05 10:55:03;;;;;;;5.45;3.10;;;19.40;56.80;;;;;;5110222;28;20035;-46
2024/01/05 10:57:49;;;;;;;7.30;3.30;;;19.40;57.10;;;;;;5108994;28;20028;-50
2024/01/05 11:00:36;;;;;;;7.30;2.80;;;19.40;57.30;;;;;;5110502;28;20049;-49
2024/01/05 11:03:24;;;;;;;7.07;3.10;;;19.40;57.30;;;;;;5109649;28;20485;-47
2024/01/05 11:06:10;;;;;;;10.77;3.10;;;19.40;56.80;;;;;;5109387;28;20032;-51
2024/01/05 11:09:02;;;;;;;8.65;3.33;;;19.40;56.90;;;;;;5108622;28;20031;-48
2024/01/05 11:12:15;;;;;;;8.48;3.15;;;19.40;57.00;;;;;;5109164;28;20035;-49
2024/01/05 11:15:17;;;;;;;8.75;2.90;;;19.50;56.90;;;;;;5110451;28;20051;-49
2024/01/05 11:18:19;;;;;;;11.80;2.90;;;19.50;56.80;;;;;;5095454;28;20569;-49
2024/01/05 11:21:05;;;;;;;8.52;3.08;;;19.40;57.20;;;;;;5106953;28;20040;-53
2024/01/05 11:23:54;;;;;;;6.07;2.63;;;19.50;57.50;;;;;;5107943;28;20050;-53
2024/01/05 11:26:42;;;;;;;6.68;2.65;;;19.40;57.20;;;;;;5105891;28;20120;-52
2024/01/05 11:29:47;;;;;;;7.82;2.80;;;19.50;57.00;;;;;;5109433;28;20092;-54
2024/01/05 11:32:44;;;;;;;9.43;3.08;;;19.50;56.80;;;;;;5104863;28;20098;-50
2024/01/05 11:35:41;;;;;;;9.57;3.22;;;19.50;56.60;;;;;;5110556;28;20035;-47
2024/01/05 11:38:29;;;;;;;9.68;3.05;;;19.40;56.80;;;;;;5107421;28;20558;-45
2024/01/05 11:41:19;;;;;;;13.00;3.03;;;19.50;56.80;;;;;;5092357;28;20043;-47
2024/01/05 11:44:04;;;;;;;10.18;3.35;;;19.50;57.00;;;;;;5107943;28;20040;-51
2024/01/05 11:46:54;;;;;;;9.05;2.80;;;19.50;56.90;;;;;;5109511;28;20050;-51
2024/01/05 11:49:41;;;;;;;14.52;3.15;;;19.50;56.80;;;;;;5109583;28;20047;-46
2024/01/05 11:52:27;;;;;;;10.10;3.30;;;19.50;57.30;;;;;;5107540;28;20457;-49
2024/01/05 11:55:13;;;;;;;13.48;3.20;;;19.50;58.10;;;;;;5108997;28;20114;-46
2024/01/05 11:57:59;;;;;;;8.25;2.78;;;19.50;57.70;;;;;;5101550;28;20036;-46
2024/01/05 12:00:46;;;;;;;13.57;4.03;;;19.50;58.00;;;;;;5107633;28;20050;-50
2024/01/05 12:03:32;;;;;;;13.00;3.70;;;19.50;57.80;;;;;;5102227;28;20039;-47
2024/01/05 12:06:17;;;;;;;9.52;3.03;;;19.50;57.00;;;;;;5108974;28;20173;-48
2024/01/05 12:09:05;;;;;;;9.45;3.47;;;19.50;57.50;;;;;;5091715;28;20031;-46
2024/01/05 12:11:51;;;;;;;7.93;3.00;;;19.40;57.30;;;;;;5106757;28;20039;-51
2024/01/05 12:14:37;;;;;;;9.80;3.80;;;19.50;57.30;;;;;;5108664;28;20040;-47
2024/01/05 12:17:23;;;;;;;11.18;3.50;;;19.50;57.30;;;;;;5106553;28;20097;-48
2024/01/05 12:20:11;;;;;;;10.18;3.40;;;19.50;57.30;;;;;;5109313;28;20490;-50
2024/01/05 12:22:57;;;;;;;12.97;3.93;;;19.50;57.20;;;;;;5104185;28;20035;-49
2024/01/05 12:25:43;;;;;;;11.95;4.43;;;19.50;57.20;;;;;;5109438;28;20151;-50
2024/01/05 12:28:30;;;;;;;13.07;4.38;;;19.50;57.20;;;;;;5108363;28;20043;-51
2024/01/05 12:31:17;;;;;;;12.13;4.13;;;19.50;57.20;;;;;;5108150;28;20047;-53
2024/01/05 12:34:03;;;;;;;18.50;5.55;;;19.50;57.30;;;;;;5105298;28;20471;-49
2024/01/05 12:36:49;;;;;;;18.02;6.28;;;19.50;57.40;;;;;;5104699;28;20024;-50
2024/01/05 12:39:35;;;;;;;22.63;6.80;;;19.50;57.40;;;;;;5096906;28;20027;-50
2024/01/05 12:42:20;;;;;;;23.15;6.38;;;19.60;57.50;;;;;;5108353;28;20822;-49
2024/01/05 12:45:08;;;;;;;24.52;7.32;;;19.60;57.50;;;;;;5108560;28;20543;-55
2024/01/05 12:47:53;;;;;;;25.05;7.25;;;19.60;57.50;;;;;;5107016;28;20032;-52
2024/01/05 12:50:39;;;;;;;31.90;6.93;;;19.60;57.50;;;;;;5093811;28;20036;-52
2024/01/05 12:53:25;;;;;;;23.83;7.25;;;19.60;57.40;;;;;;5105577;28;20039;-51
2024/01/05 12:56:12;;;;;;;21.58;6.85;;;19.60;57.70;;;;;;5108069;28;20036;-49
2024/01/05 12:58:58;;;;;;;24.83;6.07;;;19.60;57.40;;;;;;5101024;28;20114;-53
2024/01/05 13:01:44;;;;;;;26.63;7.32;;;19.60;57.50;;;;;;5105794;28;20123;-49
2024/01/05 13:04:31;;;;;;;25.23;6.97;;;19.60;57.80;;;;;;5107896;28;20108;-49
2024/01/05 13:07:16;;;;;;;23.88;6.82;;;19.60;57.10;;;;;;5105445;28;20039;-48
2024/01/05 13:10:02;;;;;;;31.05;7.43;;;19.60;57.50;;;;;;5106401;28;20036;-54
2024/01/05 13:12:48;;;;;;;23.95;6.15;;;19.60;57.50;;;;;;5103404;28;20478;-51
2024/01/05 13:15:34;;;;;;;18.27;6.18;;;19.60;57.60;;;;;;5103601;28;20032;-49
2024/01/05 13:18:20;;;;;;;21.10;5.85;;;19.70;57.60;;;;;;5103979;28;20122;-49
2024/01/05 13:21:06;;;;;;;19.10;6.00;;;19.70;57.60;;;;;;5106703;28;20418;-49